sensor_id;sensor_type;location;lat;lon;timestamp;P1;durP1;ratioP1;P2;durP2;ratioP2
7563;SDS011;3823;53.586;10.040;2023-04-25T04:02:49;10.80;;;3.75;;
7563;SDS011;3823;53.586;10.040;2023-04-25T04:05:15;11.27;;;3.25;;
7563;SDS011;3823;53.586;10.040;2023-04-25T04:07:40;10.82;;;3.45;;
7563;SDS011;3823;53.586;10.040;2023-04-25T04:10:07;22.58;;;3.90;;
7563;SDS011;3823;53.586;10.040;2023-04-25T04:12:37;8.77;;;3.22;;
7563;SDS011;3823;53.586;10.040;2023-04-25T04:15:03;21.88;;;4.05;;
7563;SDS011;3823;53.586;10.040;2023-04-25T04:17:30;8.90;;;2.72;;
7563;SDS011;3823;53.586;10.040;2023-04-25T04:19:56;9.55;;;2.65;;
7563;SDS011;3823;53.586;10.040;2023-04-25T04:22:22;9.80;;;3.63;;
7563;SDS011;3823;53.586;10.040;2023-04-25T04:24:48;12.75;;;3.88;;
7563;SDS011;3823;53.586;10.040;2023-04-25T04:27:15;16.27;;;3.47;;
7563;SDS011;3823;53.586;10.040;2023-04-25T04:29:43;20.70;;;3.10;;
7563;SDS011;3823;53.586;10.040;2023-04-25T04:32:09;13.15;;;3.55;;
7563;SDS011;3823;53.586;10.040;2023-04-25T04:34:34;13.82;;;3.58;;
7563;SDS011;3823;53.586;10.040;2023-04-25T04:37:00;9.18;;;2.53;;
7563;SDS011;3823;53.586;10.040;2023-04-25T04:39:26;7.93;;;3.00;;
7563;SDS011;3823;53.586;10.040;2023-04-25T04:41:52;10.57;;;3.47;;
7563;SDS011;3823;53.586;10.040;2023-04-25T04:44:18;18.20;;;3.00;;
7563;SDS011;3823;53.586;10.040;2023-04-25T04:46:44;11.20;;;2.67;;
7563;SDS011;3823;53.586;10.040;2023-04-25T04:49:09;10.13;;;3.40;;
7563;SDS011;3823;53.586;10.040;2023-04-25T04:51:35;15.75;;;3.67;;
7563;SDS011;3823;53.586;10.040;2023-04-25T04:54:02;12.55;;;3.83;;
7563;SDS011;3823;53.586;10.040;2023-04-25T04:56:28;6.78;;;2.55;;
7563;SDS011;3823;53.586;10.040;2023-04-25T04:58:55;10.98;;;3.20;;
7563;SDS011;3823;53.586;10.040;2023-04-25T05:01:21;10.55;;;2.58;;
7563;SDS011;3823;53.586;10.040;2023-04-25T05:03:47;8.73;;;2.92;;
7563;SDS011;3823;53.586;10.040;2023-04-25T05:06:13;8.90;;;3.25;;
7563;SDS011;3823;53.586;10.040;2023-04-25T05:08:38;9.43;;;2.53;;
7563;SDS011;3823;53.586;10.040;2023-04-25T05:11:04;7.03;;;3.38;;
7563;SDS011;3823;53.586;10.040;2023-04-25T05:13:30;9.02;;;3.35;;
7563;SDS011;3823;53.586;10.040;2023-04-25T05:15:55;17.98;;;3.88;;
7563;SDS011;3823;53.586;10.040;2023-04-25T05:18:21;10.55;;;3.13;;
7563;SDS011;3823;53.586;10.040;2023-04-25T05:20:47;7.70;;;2.78;;
7563;SDS011;3823;53.586;10.040;2023-04-25T05:23:12;9.73;;;2.80;;
7563;SDS011;3823;53.586;10.040;2023-04-25T05:25:38;11.77;;;3.97;;
7563;SDS011;3823;53.586;10.040;2023-04-25T05:28:03;10.82;;;2.75;;
7563;SDS011;3823;53.586;10.040;2023-04-25T05:30:30;7.00;;;3.10;;
7563;SDS011;3823;53.586;10.040;2023-04-25T05:32:55;8.85;;;2.75;;
7563;SDS011;3823;53.586;10.040;2023-04-25T05:35:21;7.72;;;3.10;;
7563;SDS011;3823;53.586;10.040;2023-04-25T05:37:46;13.85;;;3.22;;
7563;SDS011;3823;53.586;10.040;2023-04-25T05:40:12;7.60;;;3.25;;
7563;SDS011;3823;53.586;10.040;2023-04-25T05:42:37;8.75;;;2.60;;
7563;SDS011;3823;53.586;10.040;2023-04-25T05:45:03;9.20;;;2.97;;
7563;SDS011;3823;53.586;10.040;2023-04-25T05:47:29;8.02;;;3.15;;
7563;SDS011;3823;53.586;10.040;2023-04-25T05:49:54;11.80;;;3.00;;
7563;SDS011;3823;53.586;10.040;2023-04-25T05:52:20;19.95;;;3.28;;
7563;SDS011;3823;53.586;10.040;2023-04-25T05:54:46;18.42;;;4.00;;
7563;SDS011;3823;53.586;10.040;2023-04-25T05:57:19;13.70;;;3.25;;
7563;SDS011;3823;53.586;10.040;2023-04-25T05:59:49;15.98;;;3.50;;
7563;SDS011;3823;53.586;10.040;2023-04-25T06:02:14;14.85;;;2.67;;
7563;SDS011;3823;53.586;10.040;2023-04-25T06:04:40;19.83;;;4.35;;
7563;SDS011;3823;53.586;10.040;2023-04-25T06:07:05;12.95;;;3.45;;
7563;SDS011;3823;53.586;10.040;2023-04-25T06:09:31;9.50;;;2.92;;
7563;SDS011;3823;53.586;10.040;2023-04-25T06:11:57;12.13;;;2.92;;
7563;SDS011;3823;53.586;10.040;2023-04-25T06:14:22;12.20;;;2.78;;
7563;SDS011;3823;53.586;10.040;2023-04-25T06:16:48;6.82;;;3.55;;
7563;SDS011;3823;53.586;10.040;2023-04-25T06:19:13;10.45;;;2.53;;
7563;SDS011;3823;53.586;10.040;2023-04-25T06:21:39;11.70;;;3.33;;
7563;SDS011;3823;53.586;10.040;2023-04-25T06:24:04;13.82;;;3.70;;
7563;SDS011;3823;53.586;10.040;2023-04-25T06:26:30;9.02;;;2.90;;
7563;SDS011;3823;53.586;10.040;2023-04-25T06:28:55;5.22;;;2.33;;
7563;SDS011;3823;53.586;10.040;2023-04-25T06:31:21;12.93;;;3.88;;
7563;SDS011;3823;53.586;10.040;2023-04-25T06:33:46;4.70;;;2.25;;
7563;SDS011;3823;53.586;10.040;2023-04-25T06:36:13;9.98;;;3.53;;
7563;SDS011;3823;53.586;10.040;2023-04-25T06:38:39;10.13;;;3.72;;
7563;SDS011;3823;53.586;10.040;2023-04-25T06:41:04;9.65;;;2.88;;
7563;SDS011;3823;53.586;10.040;2023-04-25T06:43:30;14.85;;;3.05;;
7563;SDS011;3823;53.586;10.040;2023-04-25T06:45:58;13.80;;;3.20;;
7563;SDS011;3823;53.586;10.040;2023-04-25T06:48:24;11.48;;;3.40;;
7563;SDS011;3823;53.586;10.040;2023-04-25T06:50:50;20.58;;;3.70;;
7563;SDS011;3823;53.586;10.040;2023-04-25T06:53:16;14.48;;;2.85;;
7563;SDS011;3823;53.586;10.040;2023-04-25T06:55:41;6.32;;;2.50;;
7563;SDS011;3823;53.586;10.040;2023-04-25T06:58:07;11.27;;;2.58;;
7563;SDS011;3823;53.586;10.040;2023-04-25T07:00:32;6.32;;;2.45;;
7563;SDS011;3823;53.586;10.040;2023-04-25T07:02:58;10.68;;;2.97;;
7563;SDS011;3823;53.586;10.040;2023-04-25T07:05:24;14.63;;;3.83;;
7563;SDS011;3823;53.586;10.040;2023-04-25T07:07:49;19.00;;;3.00;;
7563;SDS011;3823;53.586;10.040;2023-04-25T07:10:15;10.02;;;2.03;;
7563;SDS011;3823;53.586;10.040;2023-04-25T07:12:40;16.33;;;3.33;;
7563;SDS011;3823;53.586;10.040;2023-04-25T07:15:06;5.28;;;2.72;;
7563;SDS011;3823;53.586;10.040;2023-04-25T07:17:34;8.43;;;2.20;;
7563;SDS011;3823;53.586;10.040;2023-04-25T07:20:00;5.72;;;2.95;;
7563;SDS011;3823;53.586;10.040;2023-04-25T07:22:25;13.02;;;3.05;;
7563;SDS011;3823;53.586;10.040;2023-04-25T07:24:51;9.35;;;2.72;;
7563;SDS011;3823;53.586;10.040;2023-04-25T07:27:18;7.53;;;2.53;;
7563;SDS011;3823;53.586;10.040;2023-04-25T07:29:44;6.35;;;1.88;;
7563;SDS011;3823;53.586;10.040;2023-04-25T07:32:09;9.90;;;2.38;;
7563;SDS011;3823;53.586;10.040;2023-04-25T07:34:37;12.30;;;2.60;;
7563;SDS011;3823;53.586;10.040;2023-04-25T07:37:03;5.65;;;1.60;;
7563;SDS011;3823;53.586;10.040;2023-04-25T07:39:30;5.78;;;1.92;;
7563;SDS011;3823;53.586;10.040;2023-04-25T07:41:55;5.03;;;1.88;;
7563;SDS011;3823;53.586;10.040;2023-04-25T07:44:23;14.00;;;2.10;;
7563;SDS011;3823;53.586;10.040;2023-04-25T07:46:49;5.43;;;2.00;;
7563;SDS011;3823;53.586;10.040;2023-04-25T07:49:14;3.47;;;1.60;;
7563;SDS011;3823;53.586;10.040;2023-04-25T07:51:40;4.93;;;1.80;;
7563;SDS011;3823;53.586;10.040;2023-04-25T07:54:08;10.48;;;2.38;;
7563;SDS011;3823;53.586;10.040;2023-04-25T07:56:34;3.72;;;1.77;;
7563;SDS011;3823;53.586;10.040;2023-04-25T07:58:59;7.93;;;1.60;;
7563;SDS011;3823;53.586;10.040;2023-04-25T08:01:25;16.52;;;4.38;;
7563;SDS011;3823;53.586;10.040;2023-04-25T08:03:51;8.13;;;2.05;;
7563;SDS011;3823;53.586;10.040;2023-04-25T08:06:17;7.65;;;1.80;;
7563;SDS011;3823;53.586;10.040;2023-04-25T08:08:43;6.53;;;2.60;;
7563;SDS011;3823;53.586;10.040;2023-04-25T08:11:09;11.30;;;2.42;;
7563;SDS011;3823;53.586;10.040;2023-04-25T08:13:35;6.53;;;2.28;;
7563;SDS011;3823;53.586;10.040;2023-04-25T08:16:01;10.20;;;2.25;;
7563;SDS011;3823;53.586;10.040;2023-04-25T08:18:26;6.35;;;2.17;;
7563;SDS011;3823;53.586;10.040;2023-04-25T08:20:52;5.55;;;2.08;;
7563;SDS011;3823;53.586;10.040;2023-04-25T08:23:17;5.13;;;1.50;;
7563;SDS011;3823;53.586;10.040;2023-04-25T08:25:43;5.90;;;2.67;;
7563;SDS011;3823;53.586;10.040;2023-04-25T08:28:08;8.10;;;2.03;;
7563;SDS011;3823;53.586;10.040;2023-04-25T08:30:34;3.13;;;1.52;;
7563;SDS011;3823;53.586;10.040;2023-04-25T08:33:00;12.55;;;2.58;;
7563;SDS011;3823;53.586;10.040;2023-04-25T08:35:25;5.47;;;1.67;;
7563;SDS011;3823;53.586;10.040;2023-04-25T08:37:51;7.28;;;1.75;;
7563;SDS011;3823;53.586;10.040;2023-04-25T08:40:16;11.38;;;1.92;;
7563;SDS011;3823;53.586;10.040;2023-04-25T08:42:42;5.57;;;1.58;;
7563;SDS011;3823;53.586;10.040;2023-04-25T08:45:08;4.20;;;1.63;;
7563;SDS011;3823;53.586;10.040;2023-04-25T08:47:35;14.80;;;2.30;;
7563;SDS011;3823;53.586;10.040;2023-04-25T08:50:03;11.65;;;3.30;;
7563;SDS011;3823;53.586;10.040;2023-04-25T08:52:32;7.70;;;2.20;;
7563;SDS011;3823;53.586;10.040;2023-04-25T08:55:02;10.68;;;1.95;;
7563;SDS011;3823;53.586;10.040;2023-04-25T08:57:29;11.23;;;2.40;;
7563;SDS011;3823;53.586;10.040;2023-04-25T08:59:56;10.35;;;2.90;;
7563;SDS011;3823;53.586;10.040;2023-04-25T09:02:22;7.53;;;1.63;;
7563;SDS011;3823;53.586;10.040;2023-04-25T09:04:50;9.25;;;1.77;;
7563;SDS011;3823;53.586;10.040;2023-04-25T09:07:15;3.97;;;2.08;;
7563;SDS011;3823;53.586;10.040;2023-04-25T09:09:43;3.42;;;1.65;;
7563;SDS011;3823;53.586;10.040;2023-04-25T09:12:09;5.80;;;1.60;;
7563;SDS011;3823;53.586;10.040;2023-04-25T09:14:35;12.50;;;1.90;;
7563;SDS011;3823;53.586;10.040;2023-04-25T09:17:01;4.45;;;1.02;;
7563;SDS011;3823;53.586;10.040;2023-04-25T09:19:30;6.07;;;1.25;;
7563;SDS011;3823;53.586;10.040;2023-04-25T09:21:57;5.00;;;1.35;;
7563;SDS011;3823;53.586;10.040;2023-04-25T09:24:31;9.20;;;1.85;;
7563;SDS011;3823;53.586;10.040;2023-04-25T09:27:11;8.93;;;2.10;;
7563;SDS011;3823;53.586;10.040;2023-04-25T09:29:42;9.07;;;1.45;;
7563;SDS011;3823;53.586;10.040;2023-04-25T09:32:11;6.60;;;1.30;;
7563;SDS011;3823;53.586;10.040;2023-04-25T09:34:46;11.05;;;1.60;;
7563;SDS011;3823;53.586;10.040;2023-04-25T09:37:21;7.03;;;2.47;;
7563;SDS011;3823;53.586;10.040;2023-04-25T09:39:47;7.05;;;1.73;;
7563;SDS011;3823;53.586;10.040;2023-04-25T09:42:15;5.97;;;1.35;;
7563;SDS011;3823;53.586;10.040;2023-04-25T09:44:42;6.72;;;1.50;;
7563;SDS011;3823;53.586;10.040;2023-04-25T09:47:14;4.57;;;1.42;;
7563;SDS011;3823;53.586;10.040;2023-04-25T09:49:42;2.00;;;1.17;;
7563;SDS011;3823;53.586;10.040;2023-04-25T09:52:08;2.40;;;1.27;;
7563;SDS011;3823;53.586;10.040;2023-04-25T09:54:38;3.47;;;1.70;;
7563;SDS011;3823;53.586;10.040;2023-04-25T09:57:11;6.07;;;1.58;;
7563;SDS011;3823;53.586;10.040;2023-04-25T09:59:39;2.17;;;1.33;;
7563;SDS011;3823;53.586;10.040;2023-04-25T10:02:08;6.40;;;1.50;;
7563;SDS011;3823;53.586;10.040;2023-04-25T10:04:35;9.65;;;2.33;;
7563;SDS011;3823;53.586;10.040;2023-04-25T10:07:03;21.02;;;4.28;;
7563;SDS011;3823;53.586;10.040;2023-04-25T10:09:31;11.98;;;2.40;;
7563;SDS011;3823;53.586;10.040;2023-04-25T10:12:00;4.85;;;2.22;;
7563;SDS011;3823;53.586;10.040;2023-04-25T10:14:28;8.27;;;2.05;;
7563;SDS011;3823;53.586;10.040;2023-04-25T10:16:55;7.93;;;1.60;;
7563;SDS011;3823;53.586;10.040;2023-04-25T10:19:23;10.60;;;2.47;;
7563;SDS011;3823;53.586;10.040;2023-04-25T10:21:51;2.67;;;1.25;;
7563;SDS011;3823;53.586;10.040;2023-04-25T10:24:19;5.18;;;1.38;;
7563;SDS011;3823;53.586;10.040;2023-04-25T10:26:45;2.25;;;1.33;;
7563;SDS011;3823;53.586;10.040;2023-04-25T10:29:12;7.68;;;1.45;;
7563;SDS011;3823;53.586;10.040;2023-04-25T10:31:47;3.35;;;1.20;;
7563;SDS011;3823;53.586;10.040;2023-04-25T10:34:13;7.43;;;1.50;;
7563;SDS011;3823;53.586;10.040;2023-04-25T10:36:38;3.85;;;1.38;;
7563;SDS011;3823;53.586;10.040;2023-04-25T10:39:05;6.93;;;1.38;;
7563;SDS011;3823;53.586;10.040;2023-04-25T10:42:08;3.28;;;1.30;;
7563;SDS011;3823;53.586;10.040;2023-04-25T10:44:30;4.57;;;1.63;;
7563;SDS011;3823;53.586;10.040;2023-04-25T10:46:57;9.20;;;2.25;;
7563;SDS011;3823;53.586;10.040;2023-04-25T10:54:47;5.40;;;1.65;;
7563;SDS011;3823;53.586;10.040;2023-04-25T11:02:52;1.75;;;1.05;;
7563;SDS011;3823;53.586;10.040;2023-04-25T11:05:22;5.57;;;1.95;;
7563;SDS011;3823;53.586;10.040;2023-04-25T11:07:52;4.15;;;1.20;;
7563;SDS011;3823;53.586;10.040;2023-04-25T11:10:24;5.25;;;1.25;;
7563;SDS011;3823;53.586;10.040;2023-04-25T11:12:51;3.75;;;2.13;;
7563;SDS011;3823;53.586;10.040;2023-04-25T11:15:16;7.15;;;1.30;;
7563;SDS011;3823;53.586;10.040;2023-04-25T11:17:42;5.88;;;1.10;;
7563;SDS011;3823;53.586;10.040;2023-04-25T11:20:09;2.22;;;1.10;;
7563;SDS011;3823;53.586;10.040;2023-04-25T11:22:37;2.70;;;1.33;;
7563;SDS011;3823;53.586;10.040;2023-04-25T11:25:05;3.55;;;1.15;;
7563;SDS011;3823;53.586;10.040;2023-04-25T11:27:32;5.32;;;1.52;;
7563;SDS011;3823;53.586;10.040;2023-04-25T11:30:09;2.60;;;1.15;;
7563;SDS011;3823;53.586;10.040;2023-04-25T11:32:35;6.70;;;1.50;;
7563;SDS011;3823;53.586;10.040;2023-04-25T11:35:01;4.88;;;1.23;;
7563;SDS011;3823;53.586;10.040;2023-04-25T11:37:26;8.25;;;1.17;;
7563;SDS011;3823;53.586;10.040;2023-04-25T11:39:53;10.75;;;4.07;;
7563;SDS011;3823;53.586;10.040;2023-04-25T11:42:18;6.80;;;1.55;;
7563;SDS011;3823;53.586;10.040;2023-04-25T11:44:45;7.40;;;1.63;;
7563;SDS011;3823;53.586;10.040;2023-04-25T11:47:10;12.15;;;1.40;;
7563;SDS011;3823;53.586;10.040;2023-04-25T11:49:36;3.80;;;1.05;;
7563;SDS011;3823;53.586;10.040;2023-04-25T11:52:01;9.50;;;1.52;;
7563;SDS011;3823;53.586;10.040;2023-04-25T11:54:27;2.83;;;0.90;;
7563;SDS011;3823;53.586;10.040;2023-04-25T11:56:52;11.80;;;1.92;;
7563;SDS011;3823;53.586;10.040;2023-04-25T11:59:18;3.63;;;1.20;;
7563;SDS011;3823;53.586;10.040;2023-04-25T12:01:49;4.15;;;1.20;;
7563;SDS011;3823;53.586;10.040;2023-04-25T12:04:19;5.22;;;1.30;;
7563;SDS011;3823;53.586;10.040;2023-04-25T12:06:46;2.92;;;0.88;;
7563;SDS011;3823;53.586;10.040;2023-04-25T12:09:14;3.60;;;1.55;;
7563;SDS011;3823;53.586;10.040;2023-04-25T12:11:44;5.65;;;1.92;;
7563;SDS011;3823;53.586;10.040;2023-04-25T12:14:12;6.38;;;1.58;;
7563;SDS011;3823;53.586;10.040;2023-04-25T12:16:48;2.30;;;0.70;;
7563;SDS011;3823;53.586;10.040;2023-04-25T12:19:16;4.32;;;1.77;;
7563;SDS011;3823;53.586;10.040;2023-04-25T12:21:43;5.68;;;0.77;;
7563;SDS011;3823;53.586;10.040;2023-04-25T12:24:10;1.85;;;0.70;;
7563;SDS011;3823;53.586;10.040;2023-04-25T12:29:28;12.18;;;1.35;;
7563;SDS011;3823;53.586;10.040;2023-04-25T12:31:55;2.42;;;0.80;;
7563;SDS011;3823;53.586;10.040;2023-04-25T12:34:21;3.92;;;0.90;;
7563;SDS011;3823;53.586;10.040;2023-04-25T12:36:48;6.07;;;1.20;;
7563;SDS011;3823;53.586;10.040;2023-04-25T12:39:18;6.40;;;2.45;;
7563;SDS011;3823;53.586;10.040;2023-04-25T12:41:48;5.75;;;1.05;;
7563;SDS011;3823;53.586;10.040;2023-04-25T12:44:15;2.30;;;0.77;;
7563;SDS011;3823;53.586;10.040;2023-04-25T12:46:41;3.85;;;1.23;;
7563;SDS011;3823;53.586;10.040;2023-04-25T12:49:07;5.35;;;0.93;;
7563;SDS011;3823;53.586;10.040;2023-04-25T12:51:34;4.28;;;1.13;;
7563;SDS011;3823;53.586;10.040;2023-04-25T12:54:00;3.08;;;1.20;;
7563;SDS011;3823;53.586;10.040;2023-04-25T12:56:27;10.07;;;1.35;;
7563;SDS011;3823;53.586;10.040;2023-04-25T12:58:53;2.05;;;1.00;;
7563;SDS011;3823;53.586;10.040;2023-04-25T13:01:20;2.70;;;1.00;;
7563;SDS011;3823;53.586;10.040;2023-04-25T13:03:45;4.22;;;1.30;;
7563;SDS011;3823;53.586;10.040;2023-04-25T13:06:12;5.03;;;0.80;;
7563;SDS011;3823;53.586;10.040;2023-04-25T13:08:38;4.80;;;1.67;;
7563;SDS011;3823;53.586;10.040;2023-04-25T13:11:04;5.95;;;1.27;;
7563;SDS011;3823;53.586;10.040;2023-04-25T13:13:30;5.13;;;1.33;;
7563;SDS011;3823;53.586;10.040;2023-04-25T13:15:56;5.38;;;1.73;;
7563;SDS011;3823;53.586;10.040;2023-04-25T13:18:22;2.97;;;1.05;;
7563;SDS011;3823;53.586;10.040;2023-04-25T13:20:51;5.15;;;1.33;;
7563;SDS011;3823;53.586;10.040;2023-04-25T13:23:18;4.50;;;1.25;;
7563;SDS011;3823;53.586;10.040;2023-04-25T13:25:44;4.30;;;1.10;;
7563;SDS011;3823;53.586;10.040;2023-04-25T13:28:09;5.55;;;1.42;;
7563;SDS011;3823;53.586;10.040;2023-04-25T13:30:35;5.60;;;1.38;;
7563;SDS011;3823;53.586;10.040;2023-04-25T13:33:01;6.60;;;1.77;;
7563;SDS011;3823;53.586;10.040;2023-04-25T13:35:28;9.95;;;1.50;;
7563;SDS011;3823;53.586;10.040;2023-04-25T13:37:55;2.65;;;1.35;;
7563;SDS011;3823;53.586;10.040;2023-04-25T13:40:21;5.30;;;1.20;;
7563;SDS011;3823;53.586;10.040;2023-04-25T13:42:46;4.18;;;1.27;;
7563;SDS011;3823;53.586;10.040;2023-04-25T13:45:12;3.95;;;1.45;;
7563;SDS011;3823;53.586;10.040;2023-04-25T13:47:37;4.72;;;2.00;;
7563;SDS011;3823;53.586;10.040;2023-04-25T13:50:03;4.53;;;1.40;;
7563;SDS011;3823;53.586;10.040;2023-04-25T13:52:32;2.08;;;1.10;;
7563;SDS011;3823;53.586;10.040;2023-04-25T13:54:58;4.28;;;1.13;;
7563;SDS011;3823;53.586;10.040;2023-04-25T13:57:24;5.18;;;1.30;;
7563;SDS011;3823;53.586;10.040;2023-04-25T13:59:50;5.75;;;1.30;;
7563;SDS011;3823;53.586;10.040;2023-04-25T14:02:17;5.40;;;1.17;;
7563;SDS011;3823;53.586;10.040;2023-04-25T14:04:43;4.47;;;2.38;;
7563;SDS011;3823;53.586;10.040;2023-04-25T14:07:08;1.40;;;1.10;;
7563;SDS011;3823;53.586;10.040;2023-04-25T14:09:35;4.53;;;1.75;;
7563;SDS011;3823;53.586;10.040;2023-04-25T14:12:01;7.80;;;1.38;;
7563;SDS011;3823;53.586;10.040;2023-04-25T14:14:27;3.67;;;1.67;;
7563;SDS011;3823;53.586;10.040;2023-04-25T14:16:53;4.53;;;1.52;;
7563;SDS011;3823;53.586;10.040;2023-04-25T14:19:19;3.90;;;1.80;;
7563;SDS011;3823;53.586;10.040;2023-04-25T14:21:46;6.65;;;1.80;;
7563;SDS011;3823;53.586;10.040;2023-04-25T14:24:11;3.53;;;1.45;;
7563;SDS011;3823;53.586;10.040;2023-04-25T14:26:38;4.28;;;1.63;;
7563;SDS011;3823;53.586;10.040;2023-04-25T14:29:04;2.65;;;1.15;;
7563;SDS011;3823;53.586;10.040;2023-04-25T14:31:31;5.18;;;1.23;;
7563;SDS011;3823;53.586;10.040;2023-04-25T14:33:56;4.57;;;1.08;;
7563;SDS011;3823;53.586;10.040;2023-04-25T14:36:22;4.93;;;2.05;;
7563;SDS011;3823;53.586;10.040;2023-04-25T14:38:47;4.65;;;1.52;;
7563;SDS011;3823;53.586;10.040;2023-04-25T14:41:13;12.57;;;1.52;;
7563;SDS011;3823;53.586;10.040;2023-04-25T14:43:38;4.90;;;1.92;;
7563;SDS011;3823;53.586;10.040;2023-04-25T14:46:07;4.28;;;1.45;;
7563;SDS011;3823;53.586;10.040;2023-04-25T14:48:32;8.07;;;1.55;;
7563;SDS011;3823;53.586;10.040;2023-04-25T14:50:58;4.93;;;1.13;;
7563;SDS011;3823;53.586;10.040;2023-04-25T14:53:27;7.45;;;1.38;;
7563;SDS011;3823;53.586;10.040;2023-04-25T14:55:53;5.25;;;1.60;;
7563;SDS011;3823;53.586;10.040;2023-04-25T14:58:18;5.68;;;0.80;;
7563;SDS011;3823;53.586;10.040;2023-04-25T15:00:44;4.75;;;2.45;;
7563;SDS011;3823;53.586;10.040;2023-04-25T15:03:11;5.00;;;1.48;;
7563;SDS011;3823;53.586;10.040;2023-04-25T15:05:38;3.33;;;0.90;;
7563;SDS011;3823;53.586;10.040;2023-04-25T15:08:04;2.38;;;1.02;;
7563;SDS011;3823;53.586;10.040;2023-04-25T15:10:30;3.13;;;1.27;;
7563;SDS011;3823;53.586;10.040;2023-04-25T15:12:55;3.67;;;1.55;;
7563;SDS011;3823;53.586;10.040;2023-04-25T15:15:21;5.03;;;1.20;;
7563;SDS011;3823;53.586;10.040;2023-04-25T15:17:47;5.85;;;2.13;;
7563;SDS011;3823;53.586;10.040;2023-04-25T15:20:14;3.15;;;1.00;;
7563;SDS011;3823;53.586;10.040;2023-04-25T15:22:40;5.07;;;1.20;;
7563;SDS011;3823;53.586;10.040;2023-04-25T15:25:06;6.03;;;1.20;;
7563;SDS011;3823;53.586;10.040;2023-04-25T15:27:33;5.90;;;1.40;;
7563;SDS011;3823;53.586;10.040;2023-04-25T15:30:03;3.35;;;1.30;;
7563;SDS011;3823;53.586;10.040;2023-04-25T15:32:30;3.90;;;1.63;;
7563;SDS011;3823;53.586;10.040;2023-04-25T15:34:56;4.68;;;1.50;;
7563;SDS011;3823;53.586;10.040;2023-04-25T15:37:21;3.15;;;1.00;;
7563;SDS011;3823;53.586;10.040;2023-04-25T15:39:47;3.47;;;1.25;;
7563;SDS011;3823;53.586;10.040;2023-04-25T15:42:12;6.05;;;1.50;;
7563;SDS011;3823;53.586;10.040;2023-04-25T15:44:38;5.00;;;1.70;;
7563;SDS011;3823;53.586;10.040;2023-04-25T15:47:03;6.60;;;1.15;;
7563;SDS011;3823;53.586;10.040;2023-04-25T15:49:29;9.07;;;2.28;;
7563;SDS011;3823;53.586;10.040;2023-04-25T15:51:55;2.50;;;0.77;;
7563;SDS011;3823;53.586;10.040;2023-04-25T15:54:21;5.07;;;1.30;;
7563;SDS011;3823;53.586;10.040;2023-04-25T15:56:46;8.63;;;1.70;;
7563;SDS011;3823;53.586;10.040;2023-04-25T15:59:12;4.40;;;2.45;;
7563;SDS011;3823;53.586;10.040;2023-04-25T16:01:38;9.18;;;1.23;;
7563;SDS011;3823;53.586;10.040;2023-04-25T16:04:04;8.18;;;0.98;;
7563;SDS011;3823;53.586;10.040;2023-04-25T16:06:30;4.70;;;1.38;;
7563;SDS011;3823;53.586;10.040;2023-04-25T16:08:56;5.40;;;1.27;;
7563;SDS011;3823;53.586;10.040;2023-04-25T16:11:22;5.25;;;1.30;;
7563;SDS011;3823;53.586;10.040;2023-04-25T16:13:47;9.20;;;1.50;;
7563;SDS011;3823;53.586;10.040;2023-04-25T16:16:13;4.43;;;1.90;;
7563;SDS011;3823;53.586;10.040;2023-04-25T16:18:40;6.40;;;1.40;;
7563;SDS011;3823;53.586;10.040;2023-04-25T16:21:05;6.47;;;1.17;;
7563;SDS011;3823;53.586;10.040;2023-04-25T16:23:31;3.38;;;1.27;;
7563;SDS011;3823;53.586;10.040;2023-04-25T16:25:57;8.75;;;1.52;;
7563;SDS011;3823;53.586;10.040;2023-04-25T16:28:23;3.92;;;1.35;;
7563;SDS011;3823;53.586;10.040;2023-04-25T16:30:48;5.57;;;1.33;;
7563;SDS011;3823;53.586;10.040;2023-04-25T16:33:14;4.45;;;0.85;;
7563;SDS011;3823;53.586;10.040;2023-04-25T16:35:39;3.53;;;1.58;;
7563;SDS011;3823;53.586;10.040;2023-04-25T16:38:05;4.13;;;0.73;;
7563;SDS011;3823;53.586;10.040;2023-04-25T16:40:30;12.65;;;2.65;;
7563;SDS011;3823;53.586;10.040;2023-04-25T16:42:56;3.45;;;1.23;;
7563;SDS011;3823;53.586;10.040;2023-04-25T16:45:21;6.82;;;1.92;;
7563;SDS011;3823;53.586;10.040;2023-04-25T16:47:48;5.88;;;1.13;;
7563;SDS011;3823;53.586;10.040;2023-04-25T16:50:13;7.72;;;1.98;;
7563;SDS011;3823;53.586;10.040;2023-04-25T16:52:39;5.80;;;1.30;;
7563;SDS011;3823;53.586;10.040;2023-04-25T16:55:05;7.55;;;1.58;;
7563;SDS011;3823;53.586;10.040;2023-04-25T16:57:32;2.08;;;0.82;;
7563;SDS011;3823;53.586;10.040;2023-04-25T17:00:02;6.22;;;1.00;;
7563;SDS011;3823;53.586;10.040;2023-04-25T17:02:29;5.78;;;1.05;;
7563;SDS011;3823;53.586;10.040;2023-04-25T17:04:54;4.65;;;1.25;;
7563;SDS011;3823;53.586;10.040;2023-04-25T17:07:20;6.70;;;1.00;;
7563;SDS011;3823;53.586;10.040;2023-04-25T17:09:48;2.35;;;1.05;;
7563;SDS011;3823;53.586;10.040;2023-04-25T17:12:14;3.05;;;1.00;;
7563;SDS011;3823;53.586;10.040;2023-04-25T17:14:41;4.82;;;0.88;;
7563;SDS011;3823;53.586;10.040;2023-04-25T17:17:07;2.75;;;1.50;;
7563;SDS011;3823;53.586;10.040;2023-04-25T17:19:32;6.07;;;1.40;;
7563;SDS011;3823;53.586;10.040;2023-04-25T17:21:58;3.67;;;1.20;;
7563;SDS011;3823;53.586;10.040;2023-04-25T17:24:23;3.63;;;1.27;;
7563;SDS011;3823;53.586;10.040;2023-04-25T17:26:49;5.07;;;1.42;;
7563;SDS011;3823;53.586;10.040;2023-04-25T17:29:15;4.45;;;0.70;;
7563;SDS011;3823;53.586;10.040;2023-04-25T17:31:40;4.07;;;1.30;;
7563;SDS011;3823;53.586;10.040;2023-04-25T17:34:06;2.80;;;0.85;;
7563;SDS011;3823;53.586;10.040;2023-04-25T17:36:33;2.33;;;0.93;;
7563;SDS011;3823;53.586;10.040;2023-04-25T17:38:59;2.08;;;1.10;;
7563;SDS011;3823;53.586;10.040;2023-04-25T17:41:24;6.88;;;1.55;;
7563;SDS011;3823;53.586;10.040;2023-04-25T17:43:50;2.72;;;1.00;;
7563;SDS011;3823;53.586;10.040;2023-04-25T17:46:16;2.05;;;0.82;;
7563;SDS011;3823;53.586;10.040;2023-04-25T17:48:42;6.70;;;2.05;;
7563;SDS011;3823;53.586;10.040;2023-04-25T17:51:08;8.07;;;1.67;;
7563;SDS011;3823;53.586;10.040;2023-04-25T17:53:34;8.18;;;2.60;;
7563;SDS011;3823;53.586;10.040;2023-04-25T17:56:00;1.83;;;1.10;;
7563;SDS011;3823;53.586;10.040;2023-04-25T17:58:26;9.15;;;1.17;;
7563;SDS011;3823;53.586;10.040;2023-04-25T18:00:52;4.05;;;1.10;;
7563;SDS011;3823;53.586;10.040;2023-04-25T18:03:17;3.92;;;1.35;;
7563;SDS011;3823;53.586;10.040;2023-04-25T18:05:43;4.72;;;2.00;;
7563;SDS011;3823;53.586;10.040;2023-04-25T18:08:08;8.55;;;1.38;;
7563;SDS011;3823;53.586;10.040;2023-04-25T18:10:34;3.35;;;2.08;;
7563;SDS011;3823;53.586;10.040;2023-04-25T18:12:59;7.15;;;1.67;;
7563;SDS011;3823;53.586;10.040;2023-04-25T18:15:25;6.25;;;1.85;;
7563;SDS011;3823;53.586;10.040;2023-04-25T18:17:51;4.38;;;1.48;;
7563;SDS011;3823;53.586;10.040;2023-04-25T18:20:16;7.82;;;2.22;;
7563;SDS011;3823;53.586;10.040;2023-04-25T18:22:43;3.50;;;1.65;;
7563;SDS011;3823;53.586;10.040;2023-04-25T18:25:10;5.57;;;1.65;;
7563;SDS011;3823;53.586;10.040;2023-04-25T18:27:37;8.63;;;2.50;;
7563;SDS011;3823;53.586;10.040;2023-04-25T18:30:03;8.52;;;3.45;;
7563;SDS011;3823;53.586;10.040;2023-04-25T18:32:30;5.35;;;1.85;;
7563;SDS011;3823;53.586;10.040;2023-04-25T18:34:56;3.45;;;1.55;;
7563;SDS011;3823;53.586;10.040;2023-04-25T18:37:22;4.90;;;1.45;;
7563;SDS011;3823;53.586;10.040;2023-04-25T18:39:48;4.60;;;1.10;;
7563;SDS011;3823;53.586;10.040;2023-04-25T18:42:13;3.38;;;1.20;;
7563;SDS011;3823;53.586;10.040;2023-04-25T18:44:39;4.38;;;1.45;;
7563;SDS011;3823;53.586;10.040;2023-04-25T18:47:08;8.25;;;1.33;;
7563;SDS011;3823;53.586;10.040;2023-04-25T18:49:34;4.03;;;1.10;;
7563;SDS011;3823;53.586;10.040;2023-04-25T18:52:01;3.17;;;1.40;;
7563;SDS011;3823;53.586;10.040;2023-04-25T18:54:27;19.30;;;2.05;;
7563;SDS011;3823;53.586;10.040;2023-04-25T18:56:53;4.55;;;1.85;;
7563;SDS011;3823;53.586;10.040;2023-04-25T18:59:21;2.03;;;1.42;;
7563;SDS011;3823;53.586;10.040;2023-04-25T19:01:46;3.15;;;1.08;;
7563;SDS011;3823;53.586;10.040;2023-04-25T19:04:13;6.55;;;1.05;;
7563;SDS011;3823;53.586;10.040;2023-04-25T19:06:39;13.90;;;1.92;;
7563;SDS011;3823;53.586;10.040;2023-04-25T19:09:05;9.80;;;1.83;;